KBKFKASE

Guest
Details From KBKF - BUCKLEY AFB
To KASE - Aspen Pitkin Co Sardy Fld
Flight Number -
Tags generated
Created
Modified
Stats Distance 102 nm / 190 km
Max Altitude 4,200 ft / 1,280 m
Waypoints 3
Social Downloads 0
Likes 0
Share VATSIM

Download

Looking for another format? Having issues loading an existing format? Contact us
Advertisement - Login to hide

Notes

Basic altitude profile: - Ascent Rate: 2500ft/min - Ascent Speed: 250kts - Cruise Altitude: 30000ft - Cruise Speed: 420kts - Descent Rate: 1500ft/min - Descent Speed: 250kts Options: - Use NATs: yes - Use PACOTS: yes - Use low airways: yes - Use high airways: yes

Route

KBKF JNETT KASE

ID Type Via Altitude Latitude Longitude Leg Dist Tot Dist Heading (true) Name
O KBKF APT - 0 ft / 0 m 39.70176˚ -104.75196˚ - 0 nm - BUCKLEY AFB
JNETT FIX - 4,200 ft / 1,280 m 39.35231˚ -106.47958˚ 82 nm 82 nm 256° / 255° -
O KASE APT - 0 ft / 0 m 39.22316˚ -106.86885˚ 19 nm 102 nm 247° / 247° Aspen Pitkin Co Sardy Fld

Altitude Profile

Advertisement - Login to hide

KBKF

Details ICAO KBKF (BKF)
Name BUCKLEY AFB
Region United States
Timezone America/Denver (UTC-7.0)
Stats Elevation 5,662 ft / 1,726 m (AMSL)
Location 39.701758° -104.751961°
Runways 1
Magnetic Variation 8.089° E

METAR

KBKF 142358Z 16007KT 10SM FEW050 M04/M07 A3023 RMK AO2A SLP265 T10411066 10024 21041 52006

Decode

TAF

TAF TAF AMD KBKF 142253Z 1422/1523 VRB06KT 9999 SCT070 QNH3015INS BECMG 1503/1504 20012KT 9999 FEW120 QNH3000INS BECMG 1517/1518 29015G22KT 9999 SKC QNH2997INS TX07/1517Z TNM02/1512Z

Decode

Departure Runways

ID Width Length Bearing (true) Bearing (mag) Surface Threshold Offset Overrun Length
14 150 ft / 46 m 11,015 ft / 3,357 m 151.17° 143.08° Asphalt 0 ft / 0 m 750 ft / 229 m
32 150 ft / 46 m 11,015 ft / 3,357 m 331.18° 323.09° Asphalt 0 ft / 0 m 1,000 ft / 305 m

KASE

Details ICAO KASE (ASE)
Name Aspen Pitkin Co Sardy Fld
Region United States
Timezone America/Denver (UTC-7.0)
Stats Elevation 7,820 ft / 2,384 m (AMSL)
Location 39.223164° -106.868847°
Runways 1
Magnetic Variation 9.096° E

METAR

KASE 142353Z 27008KT 10SM SCT065 M01/M10 A3024 RMK AO2 SLP231 T10111100 10017 21011 51012

Decode

TAF

TAF AMD KASE 142337Z 1500/1518 27006KT P6SM BKN060 TEMPO 1500/1503 FEW040 BKN080 FM150300 23005KT P6SM FEW060 SCT150 FM151600 34005KT P6SM FEW250

Decode

Destination Runways

ID Width Length Bearing (true) Bearing (mag) Surface Threshold Offset Overrun Length
15 100 ft / 30 m 7,011 ft / 2,137 m 159.71° 150.61° Asphalt 0 ft / 0 m 499 ft / 152 m
33 100 ft / 30 m 7,011 ft / 2,137 m 339.71° 330.61° Asphalt 0 ft / 0 m 0 ft / 0 m

Approach Navaids

Runway Type Ident Frequency Range Bearing (true) Bearing (mag) Slope Elevation
15 Localiser IPKN 108.50 MHz 25 nm / 46 km 312.00° 302.90° - 10,768 ft / 3,282 m (AMSL)
15 Localiser IASE 111.15 MHz 18 nm / 33 km 159.71° 150.62° - 7,832 ft / 2,387 m (AMSL)
15 DME IASE 111.15 MHz 18 nm / 33 km - - - 7,830 ft / 2,387 m (AMSL)

Popular Alternatives